createdAt,value
2023-04-25T00:01:31.514Z,56.32
2023-04-25T00:03:58.391Z,55.58
2023-04-25T00:06:25.712Z,56.34
2023-04-25T00:08:52.298Z,56.35
2023-04-25T00:11:18.714Z,55.31
2023-04-25T00:13:45.164Z,56.17
2023-04-25T00:16:11.632Z,56.52
2023-04-25T00:18:38.089Z,56.36
2023-04-25T00:21:04.498Z,56.43
2023-04-25T00:23:30.896Z,56.88
2023-04-25T00:25:57.672Z,56.29
2023-04-25T00:28:24.101Z,55.76
2023-04-25T00:30:50.544Z,55.63
2023-04-25T00:33:16.946Z,56.19
2023-04-25T00:35:43.347Z,57.16
2023-04-25T00:38:09.766Z,56.23
2023-04-25T00:40:36.207Z,55.95
2023-04-25T00:43:02.660Z,56.20
2023-04-25T00:45:29.139Z,56.25
2023-04-25T00:47:55.630Z,57.25
2023-04-25T00:50:22.065Z,56.18
2023-04-25T00:52:48.679Z,56.12
2023-04-25T00:55:15.124Z,56.39
2023-04-25T00:57:41.529Z,58.38
2023-04-25T01:00:07.963Z,56.56
2023-04-25T01:02:34.537Z,56.17
2023-04-25T01:05:01.008Z,56.37
2023-04-25T01:07:27.440Z,56.26
2023-04-25T01:09:53.837Z,56.58
2023-04-25T01:12:20.272Z,56.93
2023-04-25T01:14:46.786Z,57.29
2023-04-25T01:17:13.780Z,57.07
2023-04-25T01:19:42.684Z,56.52
2023-04-25T01:22:09.082Z,57.71
2023-04-25T01:24:35.536Z,58.35
2023-04-25T01:27:01.957Z,59.09
2023-04-25T01:29:28.362Z,60.50
2023-04-25T01:31:56.629Z,60.66
2023-04-25T01:34:24.160Z,60.44
2023-04-25T01:36:50.573Z,60.40
2023-04-25T01:39:17.032Z,61.13
2023-04-25T01:41:43.505Z,61.03
2023-04-25T01:44:10.561Z,60.40
2023-04-25T01:46:37.065Z,60.33
2023-04-25T01:49:03.589Z,60.65
2023-04-25T01:51:30.046Z,60.34
2023-04-25T01:53:56.475Z,62.43
2023-04-25T01:56:22.943Z,62.82
2023-04-25T01:58:50.092Z,62.29
2023-04-25T02:01:16.536Z,62.25
2023-04-25T02:03:43.069Z,62.73
2023-04-25T02:06:09.598Z,63.87
2023-04-25T02:08:35.993Z,63.74
2023-04-25T02:11:02.410Z,63.23
2023-04-25T02:13:28.824Z,63.67
2023-04-25T02:15:56.474Z,64.81
2023-04-25T02:18:22.932Z,65.47
2023-04-25T02:20:49.369Z,64.91
2023-04-25T02:23:15.805Z,65.49
2023-04-25T02:25:42.207Z,65.37
2023-04-25T02:28:08.624Z,65.78
2023-04-25T02:30:35.046Z,65.08
2023-04-25T02:33:01.545Z,65.63
2023-04-25T02:35:27.946Z,65.76
2023-04-25T02:37:54.349Z,66.00
2023-04-25T02:40:20.770Z,65.06
2023-04-25T02:42:47.208Z,65.58
2023-04-25T02:45:13.701Z,65.06
2023-04-25T02:47:40.196Z,65.64
2023-04-25T02:50:06.683Z,64.93
2023-04-25T02:52:33.121Z,64.82
2023-04-25T02:54:59.541Z,65.92
2023-04-25T02:57:25.935Z,64.91
2023-04-25T02:59:52.342Z,65.53
2023-04-25T03:02:18.773Z,66.50
2023-04-25T03:04:45.254Z,64.98
2023-04-25T03:07:11.857Z,65.32
2023-04-25T03:09:38.267Z,65.25
2023-04-25T03:12:04.690Z,65.20
2023-04-25T03:14:31.105Z,65.64
2023-04-25T03:16:57.617Z,65.03
2023-04-25T03:19:24.160Z,64.29
2023-04-25T03:21:50.635Z,64.52
2023-04-25T03:24:17.892Z,64.73
2023-04-25T03:26:44.475Z,65.27
2023-04-25T03:29:12.071Z,65.05
2023-04-25T03:31:38.526Z,65.96
2023-04-25T03:34:04.953Z,66.76
2023-04-25T03:36:31.370Z,68.16
2023-04-25T03:38:57.783Z,67.27
2023-04-25T03:41:24.174Z,67.63
2023-04-25T03:43:50.862Z,67.57
2023-04-25T03:46:17.502Z,68.17
2023-04-25T03:48:43.962Z,68.68
2023-04-25T03:51:10.373Z,67.93
2023-04-25T03:53:36.767Z,69.45
2023-04-25T03:56:03.203Z,71.31
2023-04-25T03:58:29.627Z,72.10
2023-04-25T04:00:57.760Z,71.06
2023-04-25T04:03:24.426Z,72.00
2023-04-25T04:05:52.080Z,71.34
2023-04-25T04:08:18.547Z,71.71
2023-04-25T04:10:44.926Z,71.67
2023-04-25T04:13:11.364Z,71.54
2023-04-25T04:15:37.853Z,72.61
2023-04-25T04:18:04.442Z,73.99
2023-04-25T04:20:30.880Z,74.03
2023-04-25T04:22:57.298Z,75.28
2023-04-25T04:25:23.734Z,75.20
2023-04-25T04:27:50.174Z,74.92
2023-04-25T04:30:16.602Z,75.80
2023-04-25T04:32:43.042Z,76.14
2023-04-25T04:35:09.493Z,76.67
2023-04-25T04:37:35.925Z,76.93
2023-04-25T04:40:02.352Z,77.03
2023-04-25T04:42:28.789Z,77.37
2023-04-25T04:44:55.230Z,75.97
2023-04-25T04:47:21.662Z,76.33
2023-04-25T04:49:48.515Z,75.61
2023-04-25T04:52:16.104Z,76.01
2023-04-25T04:54:42.703Z,76.01
2023-04-25T04:57:09.285Z,76.34
2023-04-25T04:59:35.876Z,76.45
2023-04-25T05:02:04.483Z,76.39
2023-04-25T05:04:30.987Z,76.96
2023-04-25T05:06:57.494Z,76.51
2023-04-25T05:09:23.905Z,76.37
2023-04-25T05:11:50.824Z,76.35
2023-04-25T05:14:17.399Z,75.60
2023-04-25T05:16:44.079Z,75.74
2023-04-25T05:19:10.506Z,75.88
2023-04-25T05:21:36.977Z,75.38
2023-04-25T05:24:03.421Z,75.32
2023-04-25T05:26:30.359Z,74.30
2023-04-25T05:28:56.946Z,74.94
2023-04-25T05:31:23.586Z,75.06
2023-04-25T05:33:51.383Z,74.89
2023-04-25T05:36:18.777Z,76.31
2023-04-25T05:38:45.722Z,75.50
2023-04-25T05:41:12.176Z,75.52
2023-04-25T05:43:38.592Z,73.44
2023-04-25T05:46:06.179Z,73.64
2023-04-25T05:48:33.696Z,74.10
2023-04-25T05:51:00.298Z,74.36
2023-04-25T05:53:26.765Z,74.64
2023-04-25T05:55:53.144Z,74.50
2023-04-25T05:58:19.566Z,73.29
2023-04-25T06:00:46.019Z,74.13
2023-04-25T06:03:12.618Z,72.91
2023-04-25T06:05:39.256Z,71.49
2023-04-25T06:08:05.713Z,72.18
2023-04-25T06:10:32.116Z,71.27
2023-04-25T06:12:58.558Z,70.08
2023-04-25T06:15:28.549Z,69.96
2023-04-25T06:17:55.643Z,69.67
2023-04-25T06:20:22.113Z,70.74
2023-04-25T06:22:48.544Z,70.13
2023-04-25T06:25:14.969Z,70.49
2023-04-25T06:27:41.352Z,69.08
2023-04-25T06:30:07.777Z,67.94
2023-04-25T06:32:34.225Z,62.09
2023-04-25T06:35:00.867Z,64.65
2023-04-25T06:37:27.311Z,65.76
2023-04-25T06:39:53.756Z,68.02
2023-04-25T06:42:20.245Z,68.29
2023-04-25T06:44:46.665Z,67.84
2023-04-25T06:47:13.072Z,68.92
2023-04-25T06:49:40.538Z,70.30
2023-04-25T06:52:06.946Z,69.23
2023-04-25T06:54:33.353Z,72.18
2023-04-25T06:56:59.744Z,69.66
2023-04-25T06:59:26.158Z,69.56
2023-04-25T07:01:52.569Z,72.69
2023-04-25T07:04:19.121Z,70.67
2023-04-25T07:06:45.819Z,68.84
2023-04-25T07:09:12.846Z,68.66
2023-04-25T07:11:39.247Z,67.72
2023-04-25T07:14:05.662Z,65.09
2023-04-25T07:16:32.152Z,66.70
2023-04-25T07:18:58.640Z,71.75
2023-04-25T07:21:25.101Z,74.77
2023-04-25T07:23:51.507Z,71.64
2023-04-25T07:26:17.953Z,67.25
2023-04-25T07:28:44.383Z,67.63
2023-04-25T07:31:10.838Z,65.04
2023-04-25T07:33:37.293Z,65.06
2023-04-25T07:36:03.692Z,66.38
2023-04-25T07:38:30.098Z,64.59
2023-04-25T07:40:56.543Z,67.87
2023-04-25T07:43:23.496Z,64.77
2023-04-25T07:45:50.119Z,65.44
2023-04-25T07:48:16.885Z,62.81
2023-04-25T07:50:43.268Z,64.08
2023-04-25T07:53:09.826Z,63.05
2023-04-25T07:55:36.247Z,62.70
2023-04-25T07:58:02.644Z,63.07
2023-04-25T08:00:29.107Z,64.01
2023-04-25T08:02:55.670Z,62.03
2023-04-25T08:05:22.979Z,60.62
2023-04-25T08:07:49.585Z,64.67
2023-04-25T08:10:16.008Z,69.63
2023-04-25T08:12:42.432Z,71.92
2023-04-25T08:15:08.851Z,76.00
2023-04-25T08:17:35.311Z,76.54
2023-04-25T08:20:01.804Z,75.49
2023-04-25T08:22:29.991Z,74.62
2023-04-25T08:24:56.576Z,76.50
2023-04-25T08:27:24.169Z,76.80
2023-04-25T08:29:51.761Z,79.23
2023-04-25T08:32:20.354Z,79.58
2023-04-25T08:34:46.938Z,83.05
2023-04-25T08:37:13.349Z,83.57
2023-04-25T08:39:40.219Z,83.29
2023-04-25T08:42:06.642Z,83.47
2023-04-25T08:44:33.055Z,82.31
2023-04-25T08:46:59.910Z,81.56
2023-04-25T08:49:26.380Z,74.94
2023-04-25T08:51:52.810Z,75.66
2023-04-25T08:54:34.413Z,79.39
2023-04-25T08:57:02.336Z,81.32
2023-04-25T08:59:28.715Z,77.46
2023-04-25T09:01:55.209Z,78.40
2023-04-25T09:04:21.689Z,77.62
2023-04-25T09:06:48.796Z,76.05
2023-04-25T09:09:15.218Z,76.50
2023-04-25T09:11:41.609Z,71.91
2023-04-25T09:14:08.657Z,76.98
2023-04-25T09:16:38.251Z,76.81
2023-04-25T09:19:06.812Z,79.93
2023-04-25T09:21:33.385Z,77.31
2023-04-25T09:23:59.817Z,78.58
2023-04-25T09:26:26.209Z,76.77
2023-04-25T09:28:52.628Z,75.36
2023-04-25T09:31:19.031Z,75.57
2023-04-25T09:33:45.449Z,75.58
2023-04-25T09:36:11.900Z,75.92
2023-04-25T09:38:38.349Z,77.04
2023-04-25T09:41:04.980Z,76.37
2023-04-25T09:43:31.430Z,76.40
2023-04-25T09:45:58.896Z,76.70
2023-04-25T09:48:25.657Z,67.66
2023-04-25T09:50:52.478Z,70.08
2023-04-25T09:53:19.039Z,71.75
2023-04-25T09:55:45.620Z,73.65
2023-04-25T09:58:13.240Z,64.50
2023-04-25T10:00:39.836Z,70.97
2023-04-25T10:03:07.486Z,64.71
2023-04-25T10:05:34.090Z,62.14
2023-04-25T10:08:00.501Z,65.09
2023-04-25T10:10:26.917Z,70.97
2023-04-25T10:12:53.832Z,69.08
2023-04-25T10:15:20.515Z,68.71
2023-04-25T10:17:47.474Z,64.11
2023-04-25T10:20:13.918Z,62.78
2023-04-25T10:22:40.370Z,64.45
2023-04-25T10:25:06.772Z,66.34
2023-04-25T10:27:33.168Z,65.01
2023-04-25T10:29:59.582Z,67.24
2023-04-25T10:32:25.976Z,66.88
2023-04-25T10:34:52.367Z,65.55
2023-04-25T10:37:18.786Z,65.94
2023-04-25T10:39:45.323Z,63.99
2023-04-25T10:42:11.761Z,61.74
2023-04-25T10:44:38.171Z,61.60
2023-04-25T10:47:05.183Z,58.85
2023-04-25T10:49:31.953Z,54.99
2023-04-25T10:51:58.492Z,55.83
2023-04-25T10:54:24.884Z,56.32
2023-04-25T10:56:51.572Z,57.64
2023-04-25T10:59:18.098Z,60.81
2023-04-25T11:01:44.627Z,56.04
2023-04-25T11:04:11.242Z,54.71
2023-04-25T11:06:37.850Z,56.22
2023-04-25T11:09:04.324Z,58.50
2023-04-25T11:11:31.148Z,58.07
2023-04-25T11:13:57.566Z,57.72
2023-04-25T11:16:28.421Z,53.70
2023-04-25T11:18:55.253Z,51.57
2023-04-25T11:21:21.664Z,52.14
2023-04-25T11:23:48.185Z,48.39
2023-04-25T11:26:14.809Z,51.96
2023-04-25T11:28:41.260Z,46.24
2023-04-25T11:31:07.715Z,50.74
2023-04-25T11:33:34.131Z,49.56
2023-04-25T11:36:01.106Z,46.07
2023-04-25T11:38:29.485Z,46.80
2023-04-25T11:40:56.014Z,43.72
2023-04-25T11:43:22.406Z,42.16
2023-04-25T11:45:49.604Z,40.29
2023-04-25T11:48:16.515Z,41.07
2023-04-25T11:50:43.721Z,41.82
2023-04-25T11:53:10.205Z,44.18
2023-04-25T11:55:36.829Z,46.41
2023-04-25T11:58:03.492Z,51.14
2023-04-25T12:00:30.121Z,54.30
2023-04-25T12:02:56.682Z,53.62
2023-04-25T12:07:52.925Z,53.26
2023-04-25T12:10:19.498Z,53.33
2023-04-25T12:12:45.926Z,53.96
2023-04-25T12:15:12.333Z,52.27
2023-04-25T12:17:38.777Z,54.38
2023-04-25T12:20:05.195Z,54.66
2023-04-25T12:22:32.504Z,52.81
2023-04-25T12:24:58.920Z,53.77
2023-04-25T12:27:25.304Z,54.04
2023-04-25T12:29:51.784Z,52.45
2023-04-25T12:32:18.245Z,49.25
2023-04-25T12:34:45.507Z,49.63
2023-04-25T12:37:12.073Z,49.82
2023-04-25T12:39:38.581Z,50.77
2023-04-25T12:42:07.653Z,55.37
2023-04-25T12:44:36.860Z,58.55
2023-04-25T12:47:03.520Z,58.10
2023-04-25T12:49:29.993Z,57.49
2023-04-25T12:51:56.392Z,58.55
2023-04-25T12:54:23.200Z,63.41
2023-04-25T12:56:49.789Z,63.19
2023-04-25T12:59:16.462Z,62.84
2023-04-25T13:01:42.926Z,54.92
2023-04-25T13:04:09.498Z,54.63
2023-04-25T13:06:36.043Z,54.06
2023-04-25T13:09:02.451Z,56.11
2023-04-25T13:13:58.149Z,51.70
2023-04-25T13:16:24.600Z,50.45
2023-04-25T13:18:51.053Z,50.90
2023-04-25T13:21:17.468Z,52.89
2023-04-25T13:23:43.878Z,47.63
2023-04-25T13:26:10.900Z,46.77
2023-04-25T13:28:37.484Z,47.45
2023-04-25T13:31:03.892Z,45.05
2023-04-25T13:33:30.327Z,44.14
2023-04-25T13:35:56.738Z,48.05
2023-04-25T13:38:23.148Z,44.48
2023-04-25T13:40:50.435Z,45.91
2023-04-25T13:43:19.563Z,44.13
2023-04-25T13:45:46.617Z,45.81
2023-04-25T15:25:24.344Z,49.47
2023-04-25T15:27:50.806Z,49.69
2023-04-25T15:30:17.282Z,48.29
2023-04-25T15:32:43.804Z,48.61
2023-04-25T15:35:11.076Z,48.42
2023-04-25T15:37:37.681Z,48.74
2023-04-25T15:40:04.273Z,45.84
2023-04-25T15:42:31.916Z,46.01
2023-04-25T15:44:59.495Z,47.44
2023-04-25T15:47:26.137Z,48.30
2023-04-25T15:49:53.009Z,49.18
2023-04-25T15:52:19.455Z,48.76
2023-04-25T15:54:46.897Z,46.78
2023-04-25T15:57:14.503Z,47.95
2023-04-25T15:59:43.265Z,47.40
2023-04-25T16:02:10.714Z,47.76
2023-04-25T16:04:38.419Z,45.06
2023-04-25T16:07:05.960Z,45.73
2023-04-25T16:09:34.050Z,45.82
2023-04-25T16:12:01.148Z,45.83
2023-04-25T16:14:27.634Z,46.02
2023-04-25T16:16:54.069Z,46.75
2023-04-25T16:19:21.042Z,48.30
2023-04-25T16:21:48.517Z,46.17
2023-04-25T16:24:17.121Z,45.42
2023-04-25T16:26:43.730Z,43.98
2023-04-25T16:29:11.292Z,43.93
2023-04-25T16:31:38.941Z,45.44
2023-04-25T16:34:06.490Z,42.73
2023-04-25T16:36:33.300Z,42.64
2023-04-25T16:39:00.665Z,43.53
2023-04-25T16:41:27.254Z,45.45
2023-04-25T16:43:54.829Z,46.56
2023-04-25T16:46:21.664Z,47.66
2023-04-25T16:48:49.303Z,48.05
2023-04-25T16:51:16.719Z,48.44
2023-04-25T16:53:43.548Z,46.73
2023-04-25T16:56:12.501Z,44.87
2023-04-25T16:58:39.458Z,45.81
2023-04-25T17:01:06.120Z,47.32
2023-04-25T17:03:35.722Z,46.13
2023-04-25T17:06:03.259Z,47.73
2023-04-25T17:08:31.844Z,47.97
2023-04-25T17:11:00.444Z,46.63
2023-04-25T17:13:31.014Z,47.18
2023-04-25T17:15:58.825Z,48.20
2023-04-25T17:18:25.790Z,46.83
2023-04-25T17:20:54.022Z,46.82
2023-04-25T17:23:22.622Z,47.06
2023-04-25T17:25:52.214Z,48.14
2023-04-25T17:28:19.868Z,52.71
2023-04-25T17:30:48.942Z,52.25
2023-04-25T17:33:15.998Z,53.35
2023-04-25T17:35:42.619Z,51.53
2023-04-25T17:38:09.081Z,51.91
2023-04-25T17:40:35.819Z,52.84
2023-04-25T17:43:03.397Z,53.98
2023-04-25T17:45:30.092Z,56.15
2023-04-25T17:47:57.641Z,55.93
2023-04-25T17:50:25.233Z,56.38
2023-04-25T17:52:53.802Z,55.58
2023-04-25T17:55:20.264Z,54.53
2023-04-25T17:57:46.994Z,55.25
2023-04-25T18:00:14.584Z,54.46
2023-04-25T18:02:42.245Z,54.61
2023-04-25T18:05:09.973Z,54.98
2023-04-25T18:07:38.976Z,56.34
2023-04-25T18:10:06.020Z,57.12
2023-04-25T18:12:33.880Z,59.53
2023-04-25T18:15:00.831Z,57.10
2023-04-25T18:17:27.977Z,55.84
2023-04-25T18:19:55.604Z,58.34
2023-04-25T18:22:23.158Z,58.06
2023-04-25T18:24:49.625Z,58.15
2023-04-25T18:27:16.085Z,58.52
2023-04-25T18:29:43.212Z,57.91
2023-04-25T18:32:09.821Z,58.63
2023-04-25T18:34:36.300Z,59.09
2023-04-25T18:37:04.330Z,57.94
2023-04-25T18:39:31.966Z,58.90
2023-04-25T18:42:04.602Z,58.27
2023-04-25T18:44:33.343Z,57.98
2023-04-25T18:47:00.929Z,56.94
2023-04-25T18:49:27.808Z,59.07
2023-04-25T18:51:55.173Z,59.59
2023-04-25T18:54:22.784Z,58.73
2023-04-25T18:56:50.340Z,56.79
2023-04-25T18:59:17.991Z,56.31
2023-04-25T19:01:45.543Z,57.27
2023-04-25T19:04:12.255Z,55.37
2023-04-25T19:06:38.931Z,56.85
2023-04-25T19:09:05.642Z,56.04
2023-04-25T19:11:32.134Z,57.08
2023-04-25T19:13:59.015Z,57.22
2023-04-25T19:16:26.826Z,58.23
2023-04-25T19:18:54.350Z,58.19
2023-04-25T19:21:21.782Z,59.21
2023-04-25T19:23:49.029Z,58.17
2023-04-25T19:26:16.054Z,57.79
2023-04-25T19:28:42.648Z,58.23
2023-04-25T19:31:09.419Z,59.09
2023-04-25T19:33:38.557Z,59.80
2023-04-25T19:36:05.607Z,61.24
2023-04-25T19:38:34.244Z,60.85
2023-04-25T19:41:00.924Z,60.17
2023-04-25T19:43:28.530Z,60.43
2023-04-25T19:45:56.275Z,60.47
2023-04-25T19:48:24.845Z,61.38
2023-04-25T19:50:51.568Z,62.22
2023-04-25T19:53:20.683Z,61.27
2023-04-25T19:55:47.672Z,61.49
2023-04-25T19:58:16.318Z,61.34
2023-04-25T20:00:43.898Z,63.31
2023-04-25T20:03:12.566Z,62.14
2023-04-25T20:05:40.101Z,60.94
2023-04-25T20:08:07.722Z,61.75
2023-04-25T20:10:36.352Z,61.46
2023-04-25T20:13:04.901Z,61.18
2023-04-25T20:15:34.009Z,60.71
2023-04-25T20:18:01.171Z,61.05
2023-04-25T20:20:28.726Z,60.66
2023-04-25T20:22:56.307Z,61.27
2023-04-25T20:25:23.179Z,60.60
2023-04-25T20:27:51.492Z,60.92
2023-04-25T20:30:20.191Z,61.44
2023-04-25T20:32:47.810Z,60.79
2023-04-25T20:35:16.901Z,61.92
2023-04-25T20:37:43.946Z,61.70
2023-04-25T20:40:11.548Z,61.35
2023-04-25T20:42:39.128Z,61.52
2023-04-25T20:45:08.448Z,61.67
2023-04-25T20:47:35.358Z,61.45
2023-04-25T20:50:04.044Z,60.85
2023-04-25T20:52:32.574Z,61.07
2023-04-25T20:55:01.188Z,60.59
2023-04-25T20:57:30.155Z,60.57
2023-04-25T20:59:57.372Z,61.63
2023-04-25T21:02:25.978Z,60.97
2023-04-25T21:04:54.537Z,61.83
2023-04-25T21:07:23.287Z,62.58
2023-04-25T21:09:50.676Z,63.02
2023-04-25T21:12:18.276Z,62.88
2023-04-25T21:14:46.871Z,62.55
2023-04-25T21:17:16.072Z,62.36
2023-04-25T21:19:44.063Z,62.62
2023-04-25T21:22:13.226Z,62.42
2023-04-25T21:24:41.282Z,63.24
2023-04-25T21:27:08.872Z,63.65
2023-04-25T21:29:36.452Z,63.51
2023-04-25T21:32:05.049Z,63.38
2023-04-25T21:34:33.640Z,62.26
2023-04-25T21:37:00.134Z,63.25
2023-04-25T21:39:28.843Z,63.62
2023-04-25T21:41:57.457Z,63.97
2023-04-25T21:44:26.043Z,64.56
2023-04-25T21:46:53.706Z,64.59
2023-04-25T21:49:21.224Z,64.34
2023-04-25T21:51:47.936Z,64.68
2023-04-25T21:54:15.425Z,63.46
2023-04-25T21:56:43.013Z,63.71
2023-04-25T21:59:11.956Z,64.06
2023-04-25T22:01:41.096Z,63.98
2023-04-25T22:04:08.906Z,63.89
2023-04-25T22:06:36.397Z,64.17
2023-04-25T22:09:03.007Z,63.95
2023-04-25T22:11:30.589Z,64.28
2023-04-25T22:13:59.183Z,64.23
2023-04-25T22:16:27.853Z,64.29
2023-04-25T22:18:55.390Z,64.79
2023-04-25T22:21:23.971Z,64.57
2023-04-25T22:23:51.560Z,65.93
2023-04-25T22:26:19.228Z,64.96
2023-04-25T22:28:46.817Z,65.64
2023-04-25T22:31:14.476Z,65.25
2023-04-25T22:33:42.002Z,65.57
2023-04-25T22:36:10.614Z,65.70
2023-04-25T22:38:38.169Z,65.57
2023-04-25T22:41:05.045Z,65.27
2023-04-25T22:43:33.786Z,64.79
2023-04-25T22:46:01.981Z,65.46
2023-04-25T22:48:30.548Z,65.60
2023-04-25T22:50:59.211Z,64.86
2023-04-25T22:53:26.744Z,64.77
2023-04-25T22:55:53.333Z,65.66
2023-04-25T22:58:20.914Z,65.00
2023-04-25T23:00:48.588Z,64.75
2023-04-25T23:03:17.296Z,65.71
2023-04-25T23:05:44.746Z,65.83
2023-04-25T23:08:12.341Z,66.35
2023-04-25T23:10:41.100Z,66.15
2023-04-25T23:13:08.513Z,66.35
2023-04-25T23:15:35.390Z,65.28
2023-04-25T23:18:02.793Z,65.23
2023-04-25T23:20:30.340Z,65.49
2023-04-25T23:22:57.906Z,65.65
2023-04-25T23:25:26.513Z,66.05
2023-04-25T23:27:55.143Z,65.42
2023-04-25T23:30:22.751Z,65.75
2023-04-25T23:32:50.374Z,66.10
2023-04-25T23:35:18.914Z,66.11
2023-04-25T23:37:45.594Z,66.39
2023-04-25T23:40:14.360Z,66.81
2023-04-25T23:42:43.316Z,66.83
2023-04-25T23:45:11.402Z,67.24
2023-04-25T23:47:40.641Z,67.26
2023-04-25T23:50:08.598Z,67.70
2023-04-25T23:52:36.190Z,67.58
2023-04-25T23:55:04.828Z,68.83
2023-04-25T23:57:33.344Z,67.24
